sensor_id;sensor_type;location;lat;lon;timestamp;temperature;humidity
16273;DHT22;8244;50.044;9.006;2023-12-20T00:00:07;5.20;99.90
16273;DHT22;8244;50.044;9.006;2023-12-20T00:05:10;5.20;99.90
16273;DHT22;8244;50.044;9.006;2023-12-20T00:10:12;5.20;99.90
16273;DHT22;8244;50.044;9.006;2023-12-20T00:15:14;5.20;99.90
16273;DHT22;8244;50.044;9.006;2023-12-20T00:20:17;5.20;99.90
16273;DHT22;8244;50.044;9.006;2023-12-20T00:25:18;5.20;99.90
16273;DHT22;8244;50.044;9.006;2023-12-20T00:30:20;5.20;99.90
16273;DHT22;8244;50.044;9.006;2023-12-20T00:35:23;5.20;99.90
16273;DHT22;8244;50.044;9.006;2023-12-20T00:40:25;5.20;99.90
16273;DHT22;8244;50.044;9.006;2023-12-20T00:45:26;5.20;99.90
16273;DHT22;8244;50.044;9.006;2023-12-20T00:50:29;5.20;99.90
16273;DHT22;8244;50.044;9.006;2023-12-20T00:55:31;5.20;99.90
16273;DHT22;8244;50.044;9.006;2023-12-20T01:00:32;5.20;99.90
16273;DHT22;8244;50.044;9.006;2023-12-20T01:05:35;5.20;99.90
16273;DHT22;8244;50.044;9.006;2023-12-20T01:10:37;5.20;99.90
16273;DHT22;8244;50.044;9.006;2023-12-20T01:15:38;5.20;99.90
16273;DHT22;8244;50.044;9.006;2023-12-20T01:20:42;5.20;99.90
16273;DHT22;8244;50.044;9.006;2023-12-20T01:25:43;5.20;99.90
16273;DHT22;8244;50.044;9.006;2023-12-20T01:30:45;5.20;99.90
16273;DHT22;8244;50.044;9.006;2023-12-20T01:35:48;5.20;99.90
16273;DHT22;8244;50.044;9.006;2023-12-20T01:40:49;5.20;99.90
16273;DHT22;8244;50.044;9.006;2023-12-20T01:45:51;5.20;99.90
16273;DHT22;8244;50.044;9.006;2023-12-20T01:50:55;5.20;99.90
16273;DHT22;8244;50.044;9.006;2023-12-20T01:55:58;5.10;99.90
16273;DHT22;8244;50.044;9.006;2023-12-20T02:01:00;5.10;99.90
16273;DHT22;8244;50.044;9.006;2023-12-20T02:06:04;5.10;99.90
16273;DHT22;8244;50.044;9.006;2023-12-20T02:11:06;5.10;99.90
16273;DHT22;8244;50.044;9.006;2023-12-20T02:16:08;5.10;99.90
16273;DHT22;8244;50.044;9.006;2023-12-20T02:21:11;5.10;99.90
16273;DHT22;8244;50.044;9.006;2023-12-20T02:26:15;5.10;99.90
16273;DHT22;8244;50.044;9.006;2023-12-20T02:31:16;5.10;99.90
16273;DHT22;8244;50.044;9.006;2023-12-20T02:36:18;5.10;99.90
16273;DHT22;8244;50.044;9.006;2023-12-20T02:41:21;5.10;99.90
16273;DHT22;8244;50.044;9.006;2023-12-20T02:46:23;5.10;99.90
16273;DHT22;8244;50.044;9.006;2023-12-20T02:51:25;5.10;99.90
16273;DHT22;8244;50.044;9.006;2023-12-20T02:56:27;5.10;99.90
16273;DHT22;8244;50.044;9.006;2023-12-20T03:01:29;5.10;99.90
16273;DHT22;8244;50.044;9.006;2023-12-20T03:06:31;5.10;99.90
16273;DHT22;8244;50.044;9.006;2023-12-20T03:11:34;5.10;99.90
16273;DHT22;8244;50.044;9.006;2023-12-20T03:16:35;5.10;99.90
16273;DHT22;8244;50.044;9.006;2023-12-20T03:21:37;5.10;99.90
16273;DHT22;8244;50.044;9.006;2023-12-20T03:26:40;5.10;99.90
16273;DHT22;8244;50.044;9.006;2023-12-20T03:31:41;5.10;99.90
16273;DHT22;8244;50.044;9.006;2023-12-20T03:36:44;5.10;99.90
16273;DHT22;8244;50.044;9.006;2023-12-20T03:41:49;5.10;99.90
16273;DHT22;8244;50.044;9.006;2023-12-20T03:46:51;5.10;99.90
16273;DHT22;8244;50.044;9.006;2023-12-20T03:51:52;5.10;99.90
16273;DHT22;8244;50.044;9.006;2023-12-20T03:56:55;5.10;99.90
16273;DHT22;8244;50.044;9.006;2023-12-20T04:01:57;5.20;99.90
16273;DHT22;8244;50.044;9.006;2023-12-20T04:06:59;5.10;99.90
16273;DHT22;8244;50.044;9.006;2023-12-20T04:12:02;5.10;99.90
16273;DHT22;8244;50.044;9.006;2023-12-20T04:17:04;5.10;99.90
16273;DHT22;8244;50.044;9.006;2023-12-20T04:22:05;5.20;99.90
16273;DHT22;8244;50.044;9.006;2023-12-20T04:27:08;5.10;99.90
16273;DHT22;8244;50.044;9.006;2023-12-20T04:32:10;5.20;99.90
16273;DHT22;8244;50.044;9.006;2023-12-20T04:37:12;5.20;99.90
16273;DHT22;8244;50.044;9.006;2023-12-20T04:42:15;5.20;99.90
16273;DHT22;8244;50.044;9.006;2023-12-20T04:47:16;5.20;99.90
16273;DHT22;8244;50.044;9.006;2023-12-20T04:52:18;5.20;99.90
16273;DHT22;8244;50.044;9.006;2023-12-20T04:57:21;5.20;99.90
16273;DHT22;8244;50.044;9.006;2023-12-20T05:02:23;5.10;99.90
16273;DHT22;8244;50.044;9.006;2023-12-20T05:07:25;5.10;99.90
16273;DHT22;8244;50.044;9.006;2023-12-20T05:12:28;5.10;99.90
16273;DHT22;8244;50.044;9.006;2023-12-20T05:17:29;5.00;99.90
16273;DHT22;8244;50.044;9.006;2023-12-20T05:22:31;5.00;99.90
16273;DHT22;8244;50.044;9.006;2023-12-20T05:27:34;5.00;99.90
16273;DHT22;8244;50.044;9.006;2023-12-20T05:32:36;4.90;99.90
16273;DHT22;8244;50.044;9.006;2023-12-20T05:37:38;4.80;99.90
16273;DHT22;8244;50.044;9.006;2023-12-20T05:42:41;4.80;99.90
16273;DHT22;8244;50.044;9.006;2023-12-20T05:47:43;4.80;99.90
16273;DHT22;8244;50.044;9.006;2023-12-20T05:52:45;4.80;99.90
16273;DHT22;8244;50.044;9.006;2023-12-20T05:57:48;4.80;99.90
16273;DHT22;8244;50.044;9.006;2023-12-20T06:02:50;4.90;99.90
16273;DHT22;8244;50.044;9.006;2023-12-20T06:07:51;4.80;99.90
16273;DHT22;8244;50.044;9.006;2023-12-20T06:12:54;4.70;99.90
16273;DHT22;8244;50.044;9.006;2023-12-20T06:17:56;4.70;99.90
16273;DHT22;8244;50.044;9.006;2023-12-20T06:22:58;4.60;99.90
16273;DHT22;8244;50.044;9.006;2023-12-20T06:28:01;4.60;99.90
16273;DHT22;8244;50.044;9.006;2023-12-20T06:33:03;4.60;99.90
16273;DHT22;8244;50.044;9.006;2023-12-20T06:38:07;4.40;99.90
16273;DHT22;8244;50.044;9.006;2023-12-20T06:43:11;4.40;99.90
16273;DHT22;8244;50.044;9.006;2023-12-20T06:48:13;4.30;99.90
16273;DHT22;8244;50.044;9.006;2023-12-20T06:53:15;4.30;99.90
16273;DHT22;8244;50.044;9.006;2023-12-20T06:58:18;4.20;99.90
16273;DHT22;8244;50.044;9.006;2023-12-20T07:03:20;4.10;99.90
16273;DHT22;8244;50.044;9.006;2023-12-20T07:08:21;4.10;99.90
16273;DHT22;8244;50.044;9.006;2023-12-20T07:13:24;4.00;99.90
16273;DHT22;8244;50.044;9.006;2023-12-20T07:18:26;3.90;99.90
16273;DHT22;8244;50.044;9.006;2023-12-20T07:23:27;3.90;99.90
16273;DHT22;8244;50.044;9.006;2023-12-20T07:28:31;3.80;99.90
16273;DHT22;8244;50.044;9.006;2023-12-20T07:33:32;3.90;99.90
16273;DHT22;8244;50.044;9.006;2023-12-20T07:38:34;3.90;99.90
16273;DHT22;8244;50.044;9.006;2023-12-20T07:43:37;4.00;99.90
16273;DHT22;8244;50.044;9.006;2023-12-20T07:48:39;4.00;99.90
16273;DHT22;8244;50.044;9.006;2023-12-20T07:53:41;4.10;99.90
16273;DHT22;8244;50.044;9.006;2023-12-20T07:58:45;4.10;99.90
16273;DHT22;8244;50.044;9.006;2023-12-20T08:03:48;4.20;99.90
16273;DHT22;8244;50.044;9.006;2023-12-20T08:08:50;4.20;99.90
16273;DHT22;8244;50.044;9.006;2023-12-20T08:13:53;4.10;99.90
16273;DHT22;8244;50.044;9.006;2023-12-20T08:18:55;4.20;99.90
16273;DHT22;8244;50.044;9.006;2023-12-20T08:23:56;4.30;99.90
16273;DHT22;8244;50.044;9.006;2023-12-20T08:29:00;4.30;99.90
16273;DHT22;8244;50.044;9.006;2023-12-20T08:34:02;4.40;99.90
16273;DHT22;8244;50.044;9.006;2023-12-20T08:39:03;4.50;99.90
16273;DHT22;8244;50.044;9.006;2023-12-20T08:44:09;4.50;99.90
16273;DHT22;8244;50.044;9.006;2023-12-20T08:49:11;4.60;99.90
16273;DHT22;8244;50.044;9.006;2023-12-20T08:54:12;4.60;99.90
16273;DHT22;8244;50.044;9.006;2023-12-20T08:59:15;4.70;99.90
16273;DHT22;8244;50.044;9.006;2023-12-20T09:04:19;4.80;99.90
16273;DHT22;8244;50.044;9.006;2023-12-20T09:09:20;4.80;99.90
16273;DHT22;8244;50.044;9.006;2023-12-20T09:14:23;4.90;99.90
16273;DHT22;8244;50.044;9.006;2023-12-20T09:19:25;5.00;99.90
16273;DHT22;8244;50.044;9.006;2023-12-20T09:24:27;5.10;99.90
16273;DHT22;8244;50.044;9.006;2023-12-20T09:29:30;5.20;99.90
16273;DHT22;8244;50.044;9.006;2023-12-20T09:34:31;5.30;99.90
16273;DHT22;8244;50.044;9.006;2023-12-20T09:39:33;5.40;99.90
16273;DHT22;8244;50.044;9.006;2023-12-20T09:44:36;5.50;99.90
16273;DHT22;8244;50.044;9.006;2023-12-20T09:49:42;5.50;99.90
16273;DHT22;8244;50.044;9.006;2023-12-20T09:54:47;5.50;99.90
16273;DHT22;8244;50.044;9.006;2023-12-20T09:59:52;5.60;99.90
16273;DHT22;8244;50.044;9.006;2023-12-20T10:04:54;5.60;99.90
16273;DHT22;8244;50.044;9.006;2023-12-20T10:09:56;5.70;99.90
16273;DHT22;8244;50.044;9.006;2023-12-20T10:14:59;5.70;99.90
16273;DHT22;8244;50.044;9.006;2023-12-20T10:20:01;5.70;99.90
16273;DHT22;8244;50.044;9.006;2023-12-20T10:25:03;5.80;99.90
16273;DHT22;8244;50.044;9.006;2023-12-20T10:30:07;5.90;99.90
16273;DHT22;8244;50.044;9.006;2023-12-20T10:35:09;5.90;99.90
16273;DHT22;8244;50.044;9.006;2023-12-20T10:40:12;6.00;99.90
16273;DHT22;8244;50.044;9.006;2023-12-20T10:45:16;6.00;99.90
16273;DHT22;8244;50.044;9.006;2023-12-20T10:50:19;6.10;99.90
16273;DHT22;8244;50.044;9.006;2023-12-20T10:55:21;6.20;99.90
16273;DHT22;8244;50.044;9.006;2023-12-20T11:00:24;6.30;99.90
16273;DHT22;8244;50.044;9.006;2023-12-20T11:05:38;6.30;99.90
16273;DHT22;8244;50.044;9.006;2023-12-20T11:10:49;6.40;99.90
16273;DHT22;8244;50.044;9.006;2023-12-20T11:15:54;6.50;99.90
16273;DHT22;8244;50.044;9.006;2023-12-20T11:21:00;6.70;99.90
16273;DHT22;8244;50.044;9.006;2023-12-20T11:26:03;6.80;99.90
16273;DHT22;8244;50.044;9.006;2023-12-20T11:31:06;7.00;99.90
16273;DHT22;8244;50.044;9.006;2023-12-20T11:36:14;7.20;99.90
16273;DHT22;8244;50.044;9.006;2023-12-20T11:41:16;7.40;99.90
16273;DHT22;8244;50.044;9.006;2023-12-20T11:46:19;7.60;99.90
16273;DHT22;8244;50.044;9.006;2023-12-20T11:51:22;7.60;99.90
16273;DHT22;8244;50.044;9.006;2023-12-20T11:56:24;7.60;99.90
16273;DHT22;8244;50.044;9.006;2023-12-20T12:01:27;7.80;99.90
16273;DHT22;8244;50.044;9.006;2023-12-20T12:06:28;8.00;99.90
16273;DHT22;8244;50.044;9.006;2023-12-20T12:11:30;8.00;99.90
16273;DHT22;8244;50.044;9.006;2023-12-20T12:16:33;8.00;99.90
16273;DHT22;8244;50.044;9.006;2023-12-20T12:21:35;7.90;99.90
16273;DHT22;8244;50.044;9.006;2023-12-20T12:26:38;7.80;99.90
16273;DHT22;8244;50.044;9.006;2023-12-20T12:31:41;7.70;99.90
16273;DHT22;8244;50.044;9.006;2023-12-20T12:36:43;7.70;99.90
16273;DHT22;8244;50.044;9.006;2023-12-20T12:41:45;7.70;99.90
16273;DHT22;8244;50.044;9.006;2023-12-20T12:46:48;7.60;99.90
16273;DHT22;8244;50.044;9.006;2023-12-20T12:51:51;7.60;99.90
16273;DHT22;8244;50.044;9.006;2023-12-20T12:56:53;7.70;99.90
16273;DHT22;8244;50.044;9.006;2023-12-20T13:01:56;7.70;99.90
16273;DHT22;8244;50.044;9.006;2023-12-20T13:06:58;7.60;99.90
16273;DHT22;8244;50.044;9.006;2023-12-20T13:12:00;7.60;99.90
16273;DHT22;8244;50.044;9.006;2023-12-20T13:17:06;7.60;99.90
16273;DHT22;8244;50.044;9.006;2023-12-20T13:22:07;7.70;99.90
16273;DHT22;8244;50.044;9.006;2023-12-20T13:27:09;7.80;99.90
16273;DHT22;8244;50.044;9.006;2023-12-20T13:32:12;7.80;99.90
16273;DHT22;8244;50.044;9.006;2023-12-20T13:37:14;7.80;99.90
16273;DHT22;8244;50.044;9.006;2023-12-20T13:42:16;7.80;99.90
16273;DHT22;8244;50.044;9.006;2023-12-20T13:47:19;7.70;99.90
16273;DHT22;8244;50.044;9.006;2023-12-20T13:52:20;7.70;99.90
16273;DHT22;8244;50.044;9.006;2023-12-20T13:57:23;7.60;99.90
16273;DHT22;8244;50.044;9.006;2023-12-20T14:02:26;7.60;99.90
16273;DHT22;8244;50.044;9.006;2023-12-20T14:07:28;7.60;99.90
16273;DHT22;8244;50.044;9.006;2023-12-20T14:12:29;7.60;99.90
16273;DHT22;8244;50.044;9.006;2023-12-20T14:17:34;7.50;99.90
16273;DHT22;8244;50.044;9.006;2023-12-20T14:22:35;7.40;99.90
16273;DHT22;8244;50.044;9.006;2023-12-20T14:27:39;7.40;99.90
16273;DHT22;8244;50.044;9.006;2023-12-20T14:32:42;7.40;99.90
16273;DHT22;8244;50.044;9.006;2023-12-20T14:37:44;7.30;99.90
16273;DHT22;8244;50.044;9.006;2023-12-20T14:42:46;7.20;99.90
16273;DHT22;8244;50.044;9.006;2023-12-20T14:47:48;7.20;99.90
16273;DHT22;8244;50.044;9.006;2023-12-20T14:52:51;7.10;99.90
16273;DHT22;8244;50.044;9.006;2023-12-20T14:57:54;7.10;99.90
16273;DHT22;8244;50.044;9.006;2023-12-20T15:02:57;7.10;99.90
16273;DHT22;8244;50.044;9.006;2023-12-20T15:07:59;7.00;99.90
16273;DHT22;8244;50.044;9.006;2023-12-20T15:13:00;7.00;99.90
16273;DHT22;8244;50.044;9.006;2023-12-20T15:18:04;7.00;99.90
16273;DHT22;8244;50.044;9.006;2023-12-20T15:23:06;7.00;99.90
16273;DHT22;8244;50.044;9.006;2023-12-20T15:28:09;6.90;99.90
16273;DHT22;8244;50.044;9.006;2023-12-20T15:33:12;6.90;99.90
16273;DHT22;8244;50.044;9.006;2023-12-20T15:38:14;6.90;99.90
16273;DHT22;8244;50.044;9.006;2023-12-20T15:43:17;7.00;99.90
16273;DHT22;8244;50.044;9.006;2023-12-20T15:48:20;6.90;99.90
16273;DHT22;8244;50.044;9.006;2023-12-20T15:53:22;6.90;99.90
16273;DHT22;8244;50.044;9.006;2023-12-20T15:58:23;6.90;99.90
16273;DHT22;8244;50.044;9.006;2023-12-20T16:03:26;6.90;99.90
16273;DHT22;8244;50.044;9.006;2023-12-20T16:08:28;6.90;99.90
16273;DHT22;8244;50.044;9.006;2023-12-20T16:13:30;6.90;99.90
16273;DHT22;8244;50.044;9.006;2023-12-20T16:18:33;6.90;99.90
16273;DHT22;8244;50.044;9.006;2023-12-20T16:23:36;6.80;99.90
16273;DHT22;8244;50.044;9.006;2023-12-20T16:28:37;6.80;99.90
16273;DHT22;8244;50.044;9.006;2023-12-20T16:33:40;6.80;99.90
16273;DHT22;8244;50.044;9.006;2023-12-20T16:38:42;6.80;99.90
16273;DHT22;8244;50.044;9.006;2023-12-20T16:43:43;6.80;99.90
16273;DHT22;8244;50.044;9.006;2023-12-20T16:48:47;6.80;99.90
16273;DHT22;8244;50.044;9.006;2023-12-20T16:53:49;6.80;99.90
16273;DHT22;8244;50.044;9.006;2023-12-20T16:58:51;6.70;99.90
16273;DHT22;8244;50.044;9.006;2023-12-20T17:03:54;6.70;99.90
16273;DHT22;8244;50.044;9.006;2023-12-20T17:08:56;6.70;99.90
16273;DHT22;8244;50.044;9.006;2023-12-20T17:13:57;6.60;99.90
16273;DHT22;8244;50.044;9.006;2023-12-20T17:19:01;6.60;99.90
16273;DHT22;8244;50.044;9.006;2023-12-20T17:24:03;6.60;99.90
16273;DHT22;8244;50.044;9.006;2023-12-20T17:29:05;6.60;99.90
16273;DHT22;8244;50.044;9.006;2023-12-20T17:34:08;6.60;99.90
16273;DHT22;8244;50.044;9.006;2023-12-20T17:39:11;6.50;99.90
16273;DHT22;8244;50.044;9.006;2023-12-20T17:44:14;6.50;99.90
16273;DHT22;8244;50.044;9.006;2023-12-20T17:49:18;6.60;99.90
16273;DHT22;8244;50.044;9.006;2023-12-20T17:54:20;6.60;99.90
16273;DHT22;8244;50.044;9.006;2023-12-20T17:59:23;6.60;99.90
16273;DHT22;8244;50.044;9.006;2023-12-20T18:04:26;6.60;99.90
16273;DHT22;8244;50.044;9.006;2023-12-20T18:09:27;6.60;99.90
16273;DHT22;8244;50.044;9.006;2023-12-20T18:14:29;6.60;99.90
16273;DHT22;8244;50.044;9.006;2023-12-20T18:19:32;6.60;99.90
16273;DHT22;8244;50.044;9.006;2023-12-20T18:24:34;6.60;99.90
16273;DHT22;8244;50.044;9.006;2023-12-20T18:29:36;6.70;99.90
16273;DHT22;8244;50.044;9.006;2023-12-20T18:34:39;6.70;99.90
16273;DHT22;8244;50.044;9.006;2023-12-20T18:39:40;6.70;99.90
16273;DHT22;8244;50.044;9.006;2023-12-20T18:44:42;6.70;99.90
16273;DHT22;8244;50.044;9.006;2023-12-20T18:49:45;6.70;99.90
16273;DHT22;8244;50.044;9.006;2023-12-20T18:54:46;6.80;99.90
16273;DHT22;8244;50.044;9.006;2023-12-20T18:59:48;6.80;99.90
16273;DHT22;8244;50.044;9.006;2023-12-20T19:04:51;6.80;99.90
16273;DHT22;8244;50.044;9.006;2023-12-20T19:09:53;6.80;99.90
16273;DHT22;8244;50.044;9.006;2023-12-20T19:14:54;6.80;99.90
16273;DHT22;8244;50.044;9.006;2023-12-20T19:19:57;6.90;99.90
16273;DHT22;8244;50.044;9.006;2023-12-20T19:25:00;6.90;99.90
16273;DHT22;8244;50.044;9.006;2023-12-20T19:30:09;6.90;99.90
16273;DHT22;8244;50.044;9.006;2023-12-20T19:35:13;6.90;99.90
16273;DHT22;8244;50.044;9.006;2023-12-20T19:40:14;6.90;99.90
16273;DHT22;8244;50.044;9.006;2023-12-20T19:45:16;6.90;99.90
16273;DHT22;8244;50.044;9.006;2023-12-20T19:50:19;6.90;99.90
16273;DHT22;8244;50.044;9.006;2023-12-20T19:55:21;6.90;99.90
16273;DHT22;8244;50.044;9.006;2023-12-20T20:00:23;6.90;99.90
16273;DHT22;8244;50.044;9.006;2023-12-20T20:05:26;6.90;99.90
16273;DHT22;8244;50.044;9.006;2023-12-20T20:10:27;6.90;99.90
16273;DHT22;8244;50.044;9.006;2023-12-20T20:15:29;6.90;99.90
16273;DHT22;8244;50.044;9.006;2023-12-20T20:20:32;6.90;99.90
16273;DHT22;8244;50.044;9.006;2023-12-20T20:25:34;6.80;99.90
16273;DHT22;8244;50.044;9.006;2023-12-20T20:30:36;6.80;99.90
16273;DHT22;8244;50.044;9.006;2023-12-20T20:35:39;6.90;99.90
16273;DHT22;8244;50.044;9.006;2023-12-20T20:40:40;6.90;99.90
16273;DHT22;8244;50.044;9.006;2023-12-20T20:45:42;6.90;99.90
16273;DHT22;8244;50.044;9.006;2023-12-20T20:50:45;6.90;99.90
16273;DHT22;8244;50.044;9.006;2023-12-20T20:55:46;6.90;99.90
16273;DHT22;8244;50.044;9.006;2023-12-20T21:00:48;6.90;99.90
16273;DHT22;8244;50.044;9.006;2023-12-20T21:05:52;6.90;99.90
16273;DHT22;8244;50.044;9.006;2023-12-20T21:10:54;6.90;99.90
16273;DHT22;8244;50.044;9.006;2023-12-20T21:15:58;7.00;99.90
16273;DHT22;8244;50.044;9.006;2023-12-20T21:21:02;7.00;99.90
16273;DHT22;8244;50.044;9.006;2023-12-20T21:26:03;7.00;99.90
16273;DHT22;8244;50.044;9.006;2023-12-20T21:31:06;7.00;99.90
16273;DHT22;8244;50.044;9.006;2023-12-20T21:36:09;7.00;99.90
16273;DHT22;8244;50.044;9.006;2023-12-20T21:41:11;7.10;99.90
16273;DHT22;8244;50.044;9.006;2023-12-20T21:46:13;7.10;99.90
16273;DHT22;8244;50.044;9.006;2023-12-20T21:51:16;7.10;99.90
16273;DHT22;8244;50.044;9.006;2023-12-20T21:56:18;7.20;99.90
16273;DHT22;8244;50.044;9.006;2023-12-20T22:01:20;7.20;99.90
16273;DHT22;8244;50.044;9.006;2023-12-20T22:06:24;7.20;99.90
16273;DHT22;8244;50.044;9.006;2023-12-20T22:11:25;7.20;99.90
16273;DHT22;8244;50.044;9.006;2023-12-20T22:16:27;7.30;99.90
16273;DHT22;8244;50.044;9.006;2023-12-20T22:21:30;7.30;99.90
16273;DHT22;8244;50.044;9.006;2023-12-20T22:26:31;7.30;99.90
16273;DHT22;8244;50.044;9.006;2023-12-20T22:31:33;7.30;99.90
16273;DHT22;8244;50.044;9.006;2023-12-20T22:36:37;7.30;99.90
16273;DHT22;8244;50.044;9.006;2023-12-20T22:41:38;7.30;99.90
16273;DHT22;8244;50.044;9.006;2023-12-20T22:46:42;7.30;99.90
16273;DHT22;8244;50.044;9.006;2023-12-20T22:51:45;7.30;99.90
16273;DHT22;8244;50.044;9.006;2023-12-20T22:56:46;7.30;99.90
16273;DHT22;8244;50.044;9.006;2023-12-20T23:01:54;7.30;99.90
16273;DHT22;8244;50.044;9.006;2023-12-20T23:06:57;7.20;99.90
16273;DHT22;8244;50.044;9.006;2023-12-20T23:12:02;7.20;99.90
16273;DHT22;8244;50.044;9.006;2023-12-20T23:17:06;7.10;99.90
16273;DHT22;8244;50.044;9.006;2023-12-20T23:22:09;7.10;99.90
16273;DHT22;8244;50.044;9.006;2023-12-20T23:27:11;7.00;99.90
16273;DHT22;8244;50.044;9.006;2023-12-20T23:32:13;7.00;99.90
16273;DHT22;8244;50.044;9.006;2023-12-20T23:37:16;7.00;99.90
16273;DHT22;8244;50.044;9.006;2023-12-20T23:42:17;7.00;99.90
16273;DHT22;8244;50.044;9.006;2023-12-20T23:47:19;7.00;99.90
16273;DHT22;8244;50.044;9.006;2023-12-20T23:52:22;6.90;99.90
16273;DHT22;8244;50.044;9.006;2023-12-20T23:57:24;6.90;99.90
